createdAt,value
2023-11-12T00:00:02.302Z,5.47
2023-11-12T00:07:02.178Z,5.47
2023-11-12T00:14:01.422Z,5.39
2023-11-12T00:21:02.121Z,5.39
2023-11-12T00:28:01.688Z,5.33
2023-11-12T00:35:01.460Z,5.33
2023-11-12T00:42:01.855Z,5.49
2023-11-12T00:49:01.556Z,5.49
2023-11-12T00:56:01.509Z,5.52
2023-11-12T01:00:02.047Z,5.52
2023-11-12T01:07:01.382Z,5.29
2023-11-12T01:21:02.121Z,5.14
2023-11-12T01:28:01.775Z,5.14
2023-11-12T01:35:01.780Z,5.51
2023-11-12T01:42:01.479Z,5.49
2023-11-12T01:49:01.667Z,5.49
2023-11-12T01:56:01.944Z,5.37
2023-11-12T02:00:01.406Z,5.37
2023-11-12T02:07:02.296Z,5.37
2023-11-12T02:14:01.747Z,5.25
2023-11-12T02:21:01.563Z,5.22
2023-11-12T02:28:01.881Z,5.22
2023-11-12T02:35:01.866Z,5.36
2023-11-12T02:42:01.536Z,5.36
2023-11-12T02:49:01.673Z,5.28
2023-11-12T02:56:02.122Z,5.28
2023-11-12T03:00:01.593Z,5.3
2023-11-12T03:07:02.345Z,5.3
2023-11-12T03:14:01.589Z,5.22
2023-11-12T03:21:01.737Z,5.22
2023-11-12T03:28:01.717Z,5.2
2023-11-12T03:35:02.226Z,5.2
2023-11-12T03:42:02.081Z,5.2
2023-11-12T03:49:01.723Z,5.2
2023-11-12T03:56:02.241Z,5.55
2023-11-12T04:00:01.682Z,5.55
2023-11-12T04:07:01.443Z,5.48
2023-11-12T04:14:01.636Z,5.48
2023-11-12T04:21:01.625Z,5.49
2023-11-12T04:28:01.649Z,5.49
2023-11-12T04:35:02.098Z,5.47
2023-11-12T04:42:02.430Z,5.55
2023-11-12T04:49:02.344Z,5.55
2023-11-12T04:56:01.643Z,5.56
2023-11-12T05:00:02.117Z,5.56
2023-11-12T05:07:01.746Z,5.56
2023-11-12T05:14:02.080Z,5.55
2023-11-12T05:21:01.654Z,5.77
2023-11-12T05:28:01.745Z,5.77
2023-11-12T05:35:02.257Z,5.77
2023-11-12T05:42:02.116Z,5.77
2023-11-12T05:49:02.076Z,5.67
2023-11-12T05:56:02.138Z,5.67
2023-11-12T06:00:01.633Z,5.65
2023-11-12T06:07:01.720Z,5.65
2023-11-12T06:14:02.391Z,5.9
2023-11-12T06:21:02.261Z,5.9
2023-11-12T06:28:01.832Z,5.61
2023-11-12T06:35:02.256Z,5.61
2023-11-12T06:42:02.261Z,5.53
2023-11-12T06:49:01.607Z,5.53
2023-11-12T06:56:04.902Z,5.4
2023-11-12T07:00:01.553Z,5.4
2023-11-12T07:07:09.771Z,5.47
2023-11-12T07:14:02.172Z,5.47
2023-11-12T07:21:01.592Z,5.28
2023-11-12T07:28:02.342Z,5.28
2023-11-12T07:35:01.615Z,5.35
2023-11-12T07:42:02.046Z,5.52
2023-11-12T07:49:02.077Z,5.52
2023-11-12T07:56:02.164Z,5.32
2023-11-12T08:00:01.629Z,5.32
2023-11-12T08:07:01.792Z,5.32
2023-11-12T08:14:01.570Z,5.2
2023-11-12T08:21:01.904Z,5.4
2023-11-12T08:28:01.662Z,5.4
2023-11-12T08:35:02.116Z,5.52
2023-11-12T08:42:01.813Z,5.52
2023-11-12T08:49:02.159Z,5.78
2023-11-12T08:56:02.199Z,5.78
2023-11-12T09:00:01.657Z,5.88
2023-11-12T09:07:02.547Z,5.88
2023-11-12T09:14:02.055Z,5.93
2023-11-12T09:21:02.413Z,5.93
2023-11-12T09:28:01.681Z,6.04
2023-11-12T09:35:02.174Z,6.04
2023-11-12T09:42:02.190Z,6.11
2023-11-12T09:49:02.106Z,6.11
2023-11-12T09:56:01.481Z,6.27
2023-11-12T10:00:04.989Z,6.27
2023-11-12T10:07:01.462Z,6.11
2023-11-12T10:14:02.034Z,6.11
2023-11-12T10:21:01.547Z,6.64
2023-11-12T10:28:01.680Z,6.64
2023-11-12T10:35:02.192Z,6.58
2023-11-12T10:42:02.256Z,6.72
2023-11-12T10:49:02.162Z,6.72
2023-11-12T10:56:01.998Z,6.98
2023-11-12T11:00:01.495Z,6.98
2023-11-12T11:07:02.207Z,6.98
2023-11-12T11:14:01.623Z,7.14
2023-11-12T11:21:02.469Z,7.11
2023-11-12T11:28:01.543Z,7.11
2023-11-12T11:35:02.534Z,7.21
2023-11-12T11:42:01.475Z,7.21
2023-11-12T11:49:01.925Z,7.54
2023-11-12T11:56:01.955Z,7.54
2023-11-12T12:00:01.408Z,7.46
2023-11-12T12:07:02.370Z,7.46
2023-11-12T12:14:02.216Z,7.72
2023-11-12T12:21:02.174Z,7.72
2023-11-12T12:28:01.479Z,7.81
2023-11-12T12:35:02.234Z,7.81
2023-11-12T12:42:01.569Z,7.89
2023-11-12T12:49:01.442Z,7.89
2023-11-12T12:56:01.627Z,7.83
2023-11-12T13:00:02.083Z,7.83
2023-11-12T13:07:01.616Z,8.22
2023-11-12T13:14:02.007Z,8.22
2023-11-12T13:21:01.750Z,8.41
2023-11-12T13:28:02.603Z,8.41
2023-11-12T13:35:01.920Z,8.26
2023-11-12T13:42:01.618Z,8.16
2023-11-12T13:49:04.058Z,8.16
2023-11-12T13:56:02.222Z,8.17
2023-11-12T14:00:01.745Z,8.17
2023-11-12T14:07:01.730Z,8.17
2023-11-12T14:14:02.105Z,8.17
2023-11-12T14:21:02.319Z,8.06
2023-11-12T14:28:01.661Z,8.06
2023-11-12T14:35:02.125Z,8.16
2023-11-12T14:42:01.971Z,8.16
2023-11-12T14:49:01.806Z,8.11
2023-11-12T14:56:01.992Z,8.11
2023-11-12T15:00:01.472Z,8.14
2023-11-12T15:07:01.513Z,8.14
2023-11-12T15:14:01.843Z,8.19
2023-11-12T15:21:02.457Z,8.19
2023-11-12T15:28:01.663Z,8.09
2023-11-12T15:35:01.507Z,8.09
2023-11-12T15:42:01.906Z,7.94
2023-11-12T15:49:02.470Z,7.94
2023-11-12T15:56:01.794Z,8.18
2023-11-12T16:00:02.478Z,8.18
2023-11-12T16:07:01.857Z,8.03
2023-11-12T16:14:01.820Z,8.03
2023-11-12T16:21:01.804Z,7.91
2023-11-12T16:28:01.472Z,7.91
2023-11-12T16:35:01.967Z,7.76
2023-11-12T16:42:01.592Z,7.92
2023-11-12T16:49:02.017Z,7.92
2023-11-12T16:56:02.064Z,7.94
2023-11-12T17:00:01.521Z,7.94
2023-11-12T17:07:01.720Z,7.94
2023-11-12T17:14:01.801Z,7.93
2023-11-12T17:21:02.148Z,7.89
2023-11-12T17:28:01.752Z,7.89
2023-11-12T17:35:01.620Z,7.73
2023-11-12T17:42:01.914Z,7.73
2023-11-12T17:49:02.559Z,7.89
2023-11-12T17:56:02.245Z,7.89
2023-11-12T18:00:01.830Z,7.8
2023-11-12T18:07:02.451Z,7.8
2023-11-12T18:14:01.494Z,7.81
2023-11-12T18:21:01.548Z,7.81
2023-11-12T18:28:02.042Z,7.7
2023-11-12T18:35:02.256Z,7.7
2023-11-12T18:42:01.828Z,7.48
2023-11-12T18:49:01.556Z,7.48
2023-11-12T18:56:01.902Z,7.53
2023-11-12T19:00:02.332Z,7.53
2023-11-12T19:07:02.010Z,7.6
2023-11-12T19:14:02.386Z,7.6
2023-11-12T19:21:02.322Z,7.5
2023-11-12T19:28:05.713Z,7.5
2023-11-12T19:35:01.671Z,7.61
2023-11-12T19:42:01.726Z,7.49
2023-11-12T19:49:02.182Z,7.49
2023-11-12T19:56:01.934Z,7.38
2023-11-12T20:00:01.434Z,7.38
2023-11-12T20:07:02.370Z,7.38
2023-11-12T20:14:01.861Z,7.06
2023-11-12T20:21:01.600Z,7.24
2023-11-12T20:28:01.777Z,7.24
2023-11-12T20:35:01.997Z,7.14
2023-11-12T20:42:01.545Z,7.14
2023-11-12T20:49:01.531Z,6.86
2023-11-12T20:56:01.907Z,6.86
2023-11-12T21:00:02.391Z,6.68
2023-11-12T21:07:01.636Z,6.68
2023-11-12T21:14:02.313Z,6.8
2023-11-12T21:21:02.219Z,6.8
2023-11-12T21:28:01.509Z,6.76
2023-11-12T21:35:02.053Z,6.76
2023-11-12T21:42:01.855Z,6.97
2023-11-12T21:49:01.838Z,6.97
2023-11-12T21:56:01.995Z,6.86
2023-11-12T22:00:01.425Z,6.86
2023-11-12T22:07:02.272Z,6.64
2023-11-12T22:14:01.744Z,6.64
2023-11-12T22:21:01.514Z,6.47
2023-11-12T22:28:02.179Z,6.47
2023-11-12T22:35:02.068Z,6.45
2023-11-12T22:42:02.442Z,6.41
2023-11-12T22:49:02.468Z,6.41
2023-11-12T22:56:01.710Z,6.45
2023-11-12T23:00:02.455Z,6.45
2023-11-12T23:07:01.880Z,6.45
2023-11-12T23:14:01.490Z,6.28
2023-11-12T23:21:08.948Z,6.38
2023-11-12T23:28:02.030Z,6.38
2023-11-12T23:35:01.793Z,6.46
2023-11-12T23:42:02.285Z,6.46
2023-11-12T23:49:02.344Z,6.44
2023-11-12T23:56:01.931Z,6.44
